Solana — WCY5602 — position and weather

sailwx.info

Track history (hours):
 
Tides and Currents Weather Stations Pressure Air Temp Water Temp Dewpoint Dewpoint Depression Visibility Wind Speed Wind Dir Waves Ship Positions

Solana

Owner: TAURUS MARINE, SAN FRANCISCO, CA. More information available from US FCC via Universal Licensing System and Coast Guard Vessel Documentation Center.

Last reported at 2014-Oct-31 17:09 UTC. Time now 2014-Oct-31 17:53 UTC.
Position N 47°39' W 122°17'.

Type: Towing. MMSI: 366969740.

Date/timePositionNaut miles runAvg speedWind from/ knotsBaromVisibWave heightAir tempDewpointWater temp
2014-Oct-31 17:09N 47°39' W 122°17'0 0.7
2014-Oct-31 17:01N 47°39' W 122°17'1 2.2
2014-Oct-31 16:33N 47°38' W 122°15'1 4.0
2014-Oct-31 16:21N 47°39' W 122°16'1 1.2
2014-Oct-31 15:33N 47°38' W 122°15'0 0.2
2014-Oct-31 15:06N 47°38' W 122°15'0 0.1
2014-Oct-31 14:33N 47°38' W 122°15'0 1.1
2014-Oct-31 14:26N 47°38' W 122°15'1 1.4
2014-Oct-31 13:33N 47°39' W 122°17'0 5.8
2014-Oct-31 13:31N 47°39' W 122°17'2 2.4
2014-Oct-31 12:33N 47°39' W 122°20'0 0.0
2014-Oct-31 12:31N 47°39' W 122°20'0 0.0
2014-Oct-31 11:33N 47°39' W 122°20'0 0.0
2014-Oct-31 11:31N 47°39' W 122°20'0 0.0
2014-Oct-31 10:33N 47°39' W 122°20'0 0.0
2014-Oct-31 10:31N 47°39' W 122°20'0 0.0
2014-Oct-31 09:33N 47°39' W 122°20'0 0.0
2014-Oct-31 09:31N 47°39' W 122°20'0 0.0
2014-Oct-31 08:33N 47°39' W 122°20'0 0.0
2014-Oct-31 08:26N 47°39' W 122°20'0 0.0
2014-Oct-31 07:33N 47°39' W 122°20'0 0.0
2014-Oct-31 07:30N 47°39' W 122°20'0 0.0
2014-Oct-31 06:33N 47°39' W 122°20'0 0.0
2014-Oct-31 06:30N 47°39' W 122°20'0 0.0
2014-Oct-31 06:20N 47°39' W 122°20'0 0.0
2014-Oct-31 05:33N 47°39' W 122°20'0 0.0
2014-Oct-31 04:33N 47°39' W 122°20'0 0.0
2014-Oct-31 04:30N 47°39' W 122°20'0 0.0
2014-Oct-31 03:33N 47°39' W 122°20'0 0.1
2014-Oct-31 03:29N 47°39' W 122°20'0 0.0
2014-Oct-31 02:33N 47°39' W 122°20'0 0.0
2014-Oct-31 02:29N 47°39' W 122°20'0 0.0
2014-Oct-31 01:33N 47°39' W 122°20'0 0.0
2014-Oct-31 01:29N 47°39' W 122°20'2 2.4
2014-Oct-31 00:32N 47°39' W 122°17'0 5.6
2014-Oct-31 00:29N 47°39' W 122°17'1 1.0
2014-Oct-30 23:33N 47°39' W 122°15'0 0.2
2014-Oct-30 23:29N 47°39' W 122°15'0 0.3
2014-Oct-30 22:33N 47°38' W 122°15'0 0.3
2014-Oct-30 22:24N 47°38' W 122°15'0 0.1
2014-Oct-30 21:34N 47°38' W 122°15'0 0.0
2014-Oct-30 21:33N 47°38' W 122°15'0 0.0
2014-Oct-30 20:32N 47°38' W 122°15'0 0.2
2014-Oct-30 19:33N 47°38' W 122°15'0 0.0
2014-Oct-30 19:33N 47°38' W 122°15'0 0.1
2014-Oct-30 18:31N 47°38' W 122°15'0 0.4
2014-Oct-30 18:23N 47°38' W 122°15'0 0.0
2014-Oct-30 17:33N 47°38' W 122°15'0 0.0
2014-Oct-30 17:33N 47°38' W 122°15'0 0.0
2014-Oct-30 16:33N 47°38' W 122°15'0 0.0
2014-Oct-30 16:18N 47°38' W 122°15'0 0.3
2014-Oct-30 15:33N 47°38' W 122°15'0 0.0
2014-Oct-30 15:13N 47°38' W 122°15'0 0.5
2014-Oct-30 14:33N 47°38' W 122°15'0 0.0
2014-Oct-30 14:32N 47°38' W 122°15'0 0.4
2014-Oct-30 13:33N 47°39' W 122°15'0 0.0
2014-Oct-30 13:33N 47°39' W 122°15'0 0.4
2014-Oct-30 12:33N 47°39' W 122°15'0 8.6
2014-Oct-30 12:33N 47°39' W 122°16'3 3.3
2014-Oct-30 11:33N 47°39' W 122°20'0 0.0
2014-Oct-30 11:33N 47°39' W 122°20'0 0.0
2014-Oct-30 10:34N 47°39' W 122°20'0 0.0
2014-Oct-30 10:33N 47°39' W 122°20'0 0.0
2014-Oct-30 09:33N 47°39' W 122°20'0 0.0
2014-Oct-30 09:32N 47°39' W 122°20'0 0.0
2014-Oct-30 08:33N 47°39' W 122°20'0 0.0
2014-Oct-30 08:32N 47°39' W 122°20'0 0.0
2014-Oct-30 07:33N 47°39' W 122°20'0 0.0
2014-Oct-30 07:32N 47°39' W 122°20'0 0.0
2014-Oct-30 06:33N 47°39' W 122°20'0 0.2
2014-Oct-30 06:32N 47°39' W 122°20'0 0.0
2014-Oct-30 06:12N 47°39' W 122°20'0 0.0
2014-Oct-30 05:33N 47°39' W 122°20'0 0.0
2014-Oct-30 04:33N 47°39' W 122°20'0 0.0
2014-Oct-30 04:32N 47°39' W 122°20'0 0.0
2014-Oct-30 03:34N 47°39' W 122°20'0 0.2
2014-Oct-30 03:32N 47°39' W 122°20'0 0.0
2014-Oct-30 02:33N 47°39' W 122°20'0 0.0
2014-Oct-30 02:32N 47°39' W 122°20'0 0.0
2014-Oct-30 01:33N 47°39' W 122°20'0 0.0
2014-Oct-30 01:32N 47°39' W 122°20'0 0.0
2014-Oct-30 00:33N 47°39' W 122°20'0 0.0
2014-Oct-30 00:32N 47°39' W 122°20'0 0.0
2014-Oct-29 23:33N 47°39' W 122°20'0 0.0
2014-Oct-29 23:31N 47°39' W 122°20'0 0.0
2014-Oct-29 22:33N 47°39' W 122°20'0 0.0
2014-Oct-29 22:31N 47°39' W 122°20'0 0.0
2014-Oct-29 21:33N 47°39' W 122°20'0 0.2
2014-Oct-29 21:31N 47°39' W 122°20'0 0.0
2014-Oct-29 20:33N 47°39' W 122°20'0 0.1
2014-Oct-29 20:30N 47°39' W 122°20'0 0.0
2014-Oct-29 19:27N 47°39' W 122°20'0 0.0
2014-Oct-29 19:10N 47°39' W 122°20'0 0.0
2014-Oct-29 18:33N 47°39' W 122°20'0 0.1
2014-Oct-29 18:30N 47°39' W 122°20'0 0.0
2014-Oct-29 17:34N 47°39' W 122°20'0 0.0
2014-Oct-29 17:30N 47°39' W 122°20'0 0.0
2014-Oct-29 16:34N 47°39' W 122°20'0 0.0
2014-Oct-29 16:30N 47°39' W 122°20'0 0.0
2014-Oct-29 15:33N 47°39' W 122°20'0 0.0
2014-Oct-29 15:30N 47°39' W 122°20'0 0.0
2014-Oct-29 14:32N 47°39' W 122°20'0 0.0
2014-Oct-29 14:30N 47°39' W 122°20'0 0.0
2014-Oct-29 13:34N 47°39' W 122°20'0 0.1
2014-Oct-29 13:30N 47°39' W 122°20'0 0.0
2014-Oct-29 12:30N 47°39' W 122°20'0 0.0
2014-Oct-29 12:28N 47°39' W 122°20'0 0.0
2014-Oct-29 09:21N 47°39' W 122°20'0 0.0
2014-Oct-29 09:19N 47°39' W 122°20'0 0.0
2014-Oct-29 08:33N 47°39' W 122°20'0 0.0
2014-Oct-29 08:28N 47°39' W 122°20'0 0.0
2014-Oct-29 07:33N 47°39' W 122°20'0 0.0
2014-Oct-29 07:29N 47°39' W 122°20'0 0.0
2014-Oct-29 06:33N 47°39' W 122°20'0 0.1
2014-Oct-29 06:29N 47°39' W 122°20'0 0.0
2014-Oct-29 06:09N 47°39' W 122°20'0 0.0
2014-Oct-29 05:33N 47°39' W 122°20'0 0.0
2014-Oct-29 04:33N 47°39' W 122°20'0 0.0
2014-Oct-29 04:28N 47°39' W 122°20'0 0.0
2014-Oct-29 03:33N 47°39' W 122°20'0 0.0
2014-Oct-29 03:28N 47°39' W 122°20'0 0.0
2014-Oct-29 02:33N 47°39' W 122°20'0 0.0
2014-Oct-29 02:29N 47°39' W 122°20'0 0.0
2014-Oct-29 01:34N 47°39' W 122°20'0 0.0
2014-Oct-29 01:28N 47°39' W 122°20'2 1.5
2014-Oct-29 00:26N 47°39' W 122°18'1 5.9
2014-Oct-29 00:18N 47°39' W 122°17'2 2.0
2014-Oct-28 23:32N 47°38' W 122°15'0 0.1
2014-Oct-28 22:34N 47°38' W 122°15'1 2.1
2014-Oct-28 21:59N 47°39' W 122°17'1 2.6
2014-Oct-28 21:30N 47°38' W 122°15'1 1.5
2014-Oct-28 21:04N 47°39' W 122°16'1 1.3
2014-Oct-28 20:33N 47°39' W 122°17'0 0.1
2014-Oct-28 20:28N 47°39' W 122°17'0 0.1
2014-Oct-28 19:33N 47°39' W 122°17'0 0.3
2014-Oct-28 19:27N 47°39' W 122°17'1 1.3
2014-Oct-28 18:33N 47°39' W 122°15'0 1.1
2014-Oct-28 18:31N 47°39' W 122°15'0 0.3
2014-Oct-28 17:32N 47°38' W 122°15'0 0.6
2014-Oct-28 16:54N 47°39' W 122°15'0 0.9
2014-Oct-28 16:33N 47°39' W 122°15'0 0.6
2014-Oct-28 16:24N 47°39' W 122°15'0 0.5
2014-Oct-28 15:33N 47°38' W 122°15'0 1.1
2014-Oct-28 15:14N 47°39' W 122°15'0 0.4
2014-Oct-28 14:30N 47°38' W 122°15'0 0.0
2014-Oct-28 14:29N 47°38' W 122°15'0 0.1
2014-Oct-28 13:31N 47°38' W 122°15'0 0.1
2014-Oct-28 13:14N 47°38' W 122°15'0 0.3
2014-Oct-28 12:32N 47°39' W 122°15'0 7.4
2014-Oct-28 12:29N 47°39' W 122°15'3 3.6
2014-Oct-28 11:34N 47°39' W 122°20'0 0.0
2014-Oct-28 11:29N 47°39' W 122°20'0 0.0
2014-Oct-28 10:33N 47°39' W 122°20'0 0.0
2014-Oct-28 10:29N 47°39' W 122°20'0 0.0
2014-Oct-28 09:33N 47°39' W 122°20'0 0.0
2014-Oct-28 09:29N 47°39' W 122°20'0 0.0
2014-Oct-28 08:33N 47°39' W 122°20'0 0.0
2014-Oct-28 08:29N 47°39' W 122°20'0 0.0
2014-Oct-28 07:33N 47°39' W 122°20'0 0.0
2014-Oct-28 07:29N 47°39' W 122°20'0 0.0
2014-Oct-28 06:33N 47°39' W 122°20'0 0.1
2014-Oct-28 06:28N 47°39' W 122°20'0 0.0
2014-Oct-28 06:23N 47°39' W 122°20'0 0.0
2014-Oct-28 05:33N 47°39' W 122°20'0 0.0
2014-Oct-28 04:33N 47°39' W 122°20'0 0.0
2014-Oct-28 04:28N 47°39' W 122°20'0 0.0
2014-Oct-28 03:34N 47°39' W 122°20'0 0.0
2014-Oct-28 03:33N 47°39' W 122°20'0 0.0
2014-Oct-28 02:33N 47°39' W 122°20'0 2.4
2014-Oct-28 02:33N 47°39' W 122°20'0 0.3
2014-Oct-28 01:34N 47°39' W 122°20'0 0.0
2014-Oct-28 01:33N 47°39' W 122°20'3 3.5
2014-Oct-28 00:34N 47°39' W 122°15'0 1.6
2014-Oct-28 00:32N 47°39' W 122°15'0 0.1
2014-Oct-27 23:29N 47°38' W 122°15'0 0.0
2014-Oct-27 22:57N 47°38' W 122°15'0 0.0
2014-Oct-27 22:17N 47°38' W 122°15'0 0.0
2014-Oct-27 22:01N 47°38' W 122°15'0 0.0
2014-Oct-27 21:33N 47°38' W 122°15'0 0.0
2014-Oct-27 21:31N 47°38' W 122°15'0 0.0
2014-Oct-27 20:20N 47°38' W 122°15'0 0.0
2014-Oct-27 20:15N 47°38' W 122°15'0 0.0
2014-Oct-27 19:34N 47°38' W 122°15'0 0.0
2014-Oct-27 19:30N 47°38' W 122°15'0 0.0
2014-Oct-27 18:33N 47°38' W 122°15'0 0.0
2014-Oct-27 18:20N 47°38' W 122°15'0 0.0
2014-Oct-27 17:33N 47°38' W 122°15'0 0.9
2014-Oct-27 17:30N 47°38' W 122°15'1 1.5
2014-Oct-27 16:33N 47°39' W 122°17'0 0.0
2014-Oct-27 16:30N 47°39' W 122°17'1 1.1
2014-Oct-27 15:32N 47°39' W 122°15'0 0.9
2014-Oct-27 15:05N 47°38' W 122°15'0 0.2
2014-Oct-27 14:30N 47°38' W 122°15'0 0.6
2014-Oct-27 14:25N 47°38' W 122°15'0 0.2
2014-Oct-27 13:33N 47°38' W 122°15'0 0.1
2014-Oct-27 13:25N 47°38' W 122°15'0 0.2
2014-Oct-27 12:34N 47°38' W 122°15'0 1.2
2014-Oct-27 12:19N 47°39' W 122°15'3 3.6
2014-Oct-27 11:33N 47°39' W 122°19'0 5.0
2014-Oct-27 11:30N 47°39' W 122°20'1 0.6
2014-Oct-27 10:33N 47°39' W 122°20'0 0.0
2014-Oct-27 10:30N 47°39' W 122°20'0 0.0
2014-Oct-27 09:33N 47°39' W 122°20'0 0.0
2014-Oct-27 09:30N 47°39' W 122°20'0 0.0
2014-Oct-27 08:33N 47°39' W 122°20'0 0.0
2014-Oct-27 08:30N 47°39' W 122°20'0 0.0
2014-Oct-27 07:33N 47°39' W 122°20'0 0.0
2014-Oct-27 07:30N 47°39' W 122°20'0 0.0
2014-Oct-27 06:33N 47°39' W 122°20'0 0.1
2014-Oct-27 06:29N 47°39' W 122°20'0 0.0
2014-Oct-27 06:24N 47°39' W 122°20'0 0.0
2014-Oct-27 05:33N 47°39' W 122°20'0 0.0
2014-Oct-27 04:33N 47°39' W 122°20'0 0.0
2014-Oct-27 04:29N 47°39' W 122°20'0 0.0
2014-Oct-27 03:33N 47°39' W 122°20'0 0.0
2014-Oct-27 03:08N 47°39' W 122°20'0 0.0
2014-Oct-27 02:33N 47°39' W 122°20'0 0.0
2014-Oct-27 02:28N 47°39' W 122°20'0 0.0
2014-Oct-27 01:33N 47°39' W 122°20'0 0.0
2014-Oct-27 01:33N 47°39' W 122°20'0 0.0
2014-Oct-27 00:34N 47°39' W 122°20'0 0.0
2014-Oct-27 00:33N 47°39' W 122°20'0 0.0
2014-Oct-26 23:33N 47°39' W 122°20'0 0.0
2014-Oct-26 23:33N 47°39' W 122°20'0 0.0
2014-Oct-26 22:33N 47°39' W 122°20'0 0.0
2014-Oct-26 22:33N 47°39' W 122°20'0 0.0
2014-Oct-26 21:33N 47°39' W 122°20'0 0.0
2014-Oct-26 21:32N 47°39' W 122°20'0 0.0
2014-Oct-26 20:33N 47°39' W 122°20'0 0.0
2014-Oct-26 20:33N 47°39' W 122°20'1 1.4
2014-Oct-26 19:31N 47°39' W 122°18'1 6.7
2014-Oct-26 19:22N 47°39' W 122°17'6 7.6
2014-Oct-26 18:33N 47°45' W 122°16'0 0.7
2014-Oct-26 18:07N 47°45' W 122°16'4 7.2
2014-Oct-26 17:33N 47°41' W 122°15'1 8.5
2014-Oct-26 17:26N 47°40' W 122°14'2 1.8
2014-Oct-26 16:32N 47°39' W 122°15'0 7.1
2014-Oct-26 16:31N 47°39' W 122°15'3 3.2
2014-Oct-26 15:33N 47°39' W 122°20'0 6.2
2014-Oct-26 15:31N 47°39' W 122°20'0 0.4
2014-Oct-26 14:33N 47°39' W 122°20'0 0.0
2014-Oct-26 14:31N 47°39' W 122°20'0 0.0
2014-Oct-26 13:33N 47°39' W 122°20'0 0.0
2014-Oct-26 13:31N 47°39' W 122°20'0 0.0
2014-Oct-26 12:33N 47°39' W 122°20'0 0.1
2014-Oct-26 12:31N 47°39' W 122°20'0 0.0
2014-Oct-26 11:33N 47°39' W 122°20'0 0.0
2014-Oct-26 11:30N 47°39' W 122°20'0 0.0
2014-Oct-26 10:33N 47°39' W 122°20'0 0.0
2014-Oct-26 10:30N 47°39' W 122°20'0 0.0
2014-Oct-26 09:33N 47°39' W 122°20'0 0.0
2014-Oct-26 09:30N 47°39' W 122°20'0 0.0
2014-Oct-26 08:33N 47°39' W 122°20'0 0.0
2014-Oct-26 08:30N 47°39' W 122°20'0 0.0
2014-Oct-26 07:33N 47°39' W 122°20'0 0.1
2014-Oct-26 07:30N 47°39' W 122°20'0 0.0
2014-Oct-26 06:33N 47°39' W 122°20'0 0.0
2014-Oct-26 06:30N 47°39' W 122°20'0 0.0
2014-Oct-26 06:00N 47°39' W 122°20'0 0.0
2014-Oct-26 05:33N 47°39' W 122°20'0 0.0
2014-Oct-26 04:33N 47°39' W 122°20'0 0.0
2014-Oct-26 04:29N 47°39' W 122°20'0 0.0
2014-Oct-26 03:33N 47°39' W 122°20'0 0.0
2014-Oct-26 03:29N 47°39' W 122°20'0 0.0
2014-Oct-26 02:33N 47°39' W 122°20'0 0.0
2014-Oct-26 02:29N 47°39' W 122°20'0 0.0
2014-Oct-26 00:07N 47°39' W 122°20'0 0.0
2014-Oct-25 23:23N 47°39' W 122°20'0 0.0
2014-Oct-25 23:19N 47°39' W 122°20'0 0.0
2014-Oct-25 22:33N 47°39' W 122°20'0 0.0
2014-Oct-25 22:29N 47°39' W 122°20'0 0.0
2014-Oct-25 21:33N 47°39' W 122°20'0 0.1
2014-Oct-25 21:29N 47°39' W 122°20'0 0.0
2014-Oct-25 20:33N 47°39' W 122°20'0 0.0
2014-Oct-25 20:29N 47°39' W 122°20'0 0.0
2014-Oct-25 19:33N 47°39' W 122°20'0 0.1
2014-Oct-25 19:29N 47°39' W 122°20'0 0.0
2014-Oct-25 18:33N 47°39' W 122°20'0 0.0
2014-Oct-25 18:29N 47°39' W 122°20'0 0.0
2014-Oct-25 17:33N 47°39' W 122°20'0 0.0
2014-Oct-25 17:28N 47°39' W 122°20'0 0.0
2014-Oct-25 16:32N 47°39' W 122°20'0 0.1
2014-Oct-25 16:28N 47°39' W 122°20'0 0.0
2014-Oct-25 15:33N 47°39' W 122°20'0 0.1
2014-Oct-25 15:29N 47°39' W 122°20'0 0.0
2014-Oct-25 14:33N 47°39' W 122°20'0 0.0
2014-Oct-25 13:33N 47°39' W 122°20'0 0.0
2014-Oct-25 12:33N 47°39' W 122°20'0 0.0
2014-Oct-25 12:32N 47°39' W 122°20'0 0.0
2014-Oct-25 11:33N 47°39' W 122°20'0 0.0
2014-Oct-25 11:33N 47°39' W 122°20'0 0.0
2014-Oct-25 10:33N 47°39' W 122°20'0 0.0
2014-Oct-25 10:33N 47°39' W 122°20'0 0.0
2014-Oct-25 09:33N 47°39' W 122°20'0 0.0
2014-Oct-25 09:33N 47°39' W 122°20'0 0.0
2014-Oct-25 08:33N 47°39' W 122°20'0 0.0
2014-Oct-25 08:32N 47°39' W 122°20'0 0.0
2014-Oct-25 07:33N 47°39' W 122°20'0 0.0
2014-Oct-25 07:33N 47°39' W 122°20'0 0.0
2014-Oct-25 06:33N 47°39' W 122°20'0 0.0
2014-Oct-25 06:33N 47°39' W 122°20'0 0.0
2014-Oct-25 05:57N 47°39' W 122°20'0 0.0
2014-Oct-25 05:33N 47°39' W 122°20'0 0.0
2014-Oct-25 04:33N 47°39' W 122°20'0 0.0
2014-Oct-25 04:32N 47°39' W 122°20'0 0.0
2014-Oct-25 03:33N 47°39' W 122°20'0 0.0
2014-Oct-25 03:32N 47°39' W 122°20'0 0.0
2014-Oct-25 02:33N 47°39' W 122°20'0 0.0
2014-Oct-25 02:32N 47°39' W 122°20'2 1.6
2014-Oct-25 01:33N 47°39' W 122°18'1 6.5
2014-Oct-25 01:27N 47°39' W 122°17'2 1.7
2014-Oct-25 00:33N 47°39' W 122°15'0 1.9
2014-Oct-25 00:26N 47°38' W 122°15'0 0.1
2014-Oct-24 23:33N 47°38' W 122°15'0 3.1
2014-Oct-24 23:27N 47°38' W 122°15'0 0.4
2014-Oct-24 22:31N 47°38' W 122°15'0 0.5
2014-Oct-24 22:28N 47°38' W 122°15'0 0.4
2014-Oct-24 21:33N 47°39' W 122°15'0 1.5
2014-Oct-24 21:31N 47°39' W 122°15'0 0.5
2014-Oct-24 20:33N 47°38' W 122°15'0 0.4
2014-Oct-24 20:01N 47°38' W 122°15'0 0.2
2014-Oct-24 19:33N 47°38' W 122°15'0 0.1
2014-Oct-24 18:33N 47°38' W 122°15'0 0.0
2014-Oct-24 18:09N 47°38' W 122°15'0 0.0
2014-Oct-24 17:33N 47°38' W 122°15'0 0.1
2014-Oct-24 16:48N 47°38' W 122°15'0 0.1
2014-Oct-24 16:32N 47°38' W 122°15'0 0.2
2014-Oct-24 16:24N 47°38' W 122°15'0 0.5
2014-Oct-24 15:33N 47°39' W 122°15'0 1.1
2014-Oct-24 15:28N 47°39' W 122°15'0 0.5
2014-Oct-24 14:33N 47°39' W 122°16'1 6.3
2014-Oct-24 14:28N 47°39' W 122°15'0 0.2
2014-Oct-24 13:33N 47°38' W 122°15'0 0.0
2014-Oct-24 13:33N 47°38' W 122°15'1 0.6
2014-Oct-24 12:33N 47°39' W 122°15'0 0.0
2014-Oct-24 12:33N 47°39' W 122°15'3 3.4
2014-Oct-24 11:33N 47°39' W 122°20'0 0.0
2014-Oct-24 11:33N 47°39' W 122°20'0 0.0
2014-Oct-24 10:33N 47°39' W 122°20'0 0.0
2014-Oct-24 10:33N 47°39' W 122°20'0 0.0
2014-Oct-24 09:33N 47°39' W 122°20'0 0.0
2014-Oct-24 09:33N 47°39' W 122°20'0 0.0
2014-Oct-24 06:23N 47°39' W 122°20'0 0.0
2014-Oct-24 06:22N 47°39' W 122°20'0 0.0
2014-Oct-24 05:57N 47°39' W 122°20'0 0.0
2014-Oct-24 05:33N 47°39' W 122°20'0 0.0
2014-Oct-24 04:33N 47°39' W 122°20'0 0.0
2014-Oct-24 04:32N 47°39' W 122°20'0 0.0
2014-Oct-24 03:33N 47°39' W 122°20'0 0.4
2014-Oct-24 03:32N 47°39' W 122°20'0 0.0
2014-Oct-24 02:33N 47°39' W 122°20'0 0.0
2014-Oct-24 02:32N 47°39' W 122°20'3 3.5
2014-Oct-24 01:33N 47°39' W 122°15'0 7.9
2014-Oct-24 01:31N 47°39' W 122°15'0 0.2
2014-Oct-24 00:34N 47°38' W 122°15'0 0.2
2014-Oct-24 00:32N 47°38' W 122°15'0 0.1
2014-Oct-23 23:34N 47°38' W 122°15'0 8.2
2014-Oct-23 23:32N 47°39' W 122°15'3 3.4
2014-Oct-23 22:34N 47°39' W 122°20'0 0.2
2014-Oct-23 22:31N 47°39' W 122°20'0 0.0
2014-Oct-23 21:33N 47°39' W 122°20'0 0.2
2014-Oct-23 21:31N 47°39' W 122°20'0 0.0
2014-Oct-23 20:34N 47°39' W 122°20'0 0.0
2014-Oct-23 20:31N 47°39' W 122°20'0 0.0
2014-Oct-23 19:33N 47°39' W 122°20'0 0.0
2014-Oct-23 19:31N 47°39' W 122°20'0 0.0
2014-Oct-23 18:33N 47°39' W 122°20'0 0.2
2014-Oct-23 18:31N 47°39' W 122°20'2 2.1
2014-Oct-23 17:31N 47°39' W 122°17'0 6.8
2014-Oct-23 17:30N 47°39' W 122°17'1 0.7
2014-Oct-23 16:32N 47°39' W 122°16'0 1.5
2014-Oct-23 16:21N 47°39' W 122°16'0 0.2
2014-Oct-23 15:33N 47°39' W 122°16'0 0.4
2014-Oct-23 15:20N 47°39' W 122°16'1 0.8
2014-Oct-23 14:33N 47°38' W 122°15'0 0.5
2014-Oct-23 14:25N 47°39' W 122°16'3 3.1
2014-Oct-23 13:32N 47°39' W 122°20'1 5.1
2014-Oct-23 13:25N 47°39' W 122°20'0 0.4
2014-Oct-23 12:33N 47°39' W 122°20'0 0.1
2014-Oct-23 12:30N 47°39' W 122°20'0 0.0
2014-Oct-23 11:34N 47°39' W 122°20'0 0.0
2014-Oct-23 11:30N 47°39' W 122°20'0 0.0
2014-Oct-23 10:33N 47°39' W 122°20'0 0.0
2014-Oct-23 10:30N 47°39' W 122°20'0 0.0
2014-Oct-23 09:33N 47°39' W 122°20'0 0.0
2014-Oct-23 09:30N 47°39' W 122°20'0 0.0
2014-Oct-23 08:33N 47°39' W 122°20'0 0.1
2014-Oct-23 08:30N 47°39' W 122°20'0 0.0
2014-Oct-23 07:33N 47°39' W 122°20'0 0.0
2014-Oct-23 07:30N 47°39' W 122°20'2 1.5
2014-Oct-23 06:28N 47°39' W 122°18'2 6.7
2014-Oct-23 06:14N 47°39' W 122°16'3 8.5
2014-Oct-23 05:54N 47°42' W 122°15'3 8.6
2014-Oct-23 05:33N 47°45' W 122°16'5 5.2
2014-Oct-23 04:33N 47°40' W 122°15'1 8.9
2014-Oct-23 04:29N 47°39' W 122°15'3 3.6
2014-Oct-23 03:33N 47°39' W 122°20'0 5.4
2014-Oct-23 03:29N 47°39' W 122°20'3 3.3
2014-Oct-23 02:32N 47°40' W 122°24'0 2.5
2014-Oct-23 02:29N 47°40' W 122°24'6 6.0
2014-Oct-23 01:33N 47°35' W 122°28'1 8.6
2014-Oct-23 01:29N 47°35' W 122°28'8 8.8
2014-Oct-23 00:34N 47°27' W 122°31'9 8.4
2014-Oct-22 23:32N 47°18' W 122°32'2 7.0
2014-Oct-22 23:18N 47°17' W 122°32'5 7.0
2014-Oct-22 22:33N 47°12' W 122°36'4 3.7
2014-Oct-22 21:34N 47°09' W 122°38'0 0.0
2014-Oct-22 20:32N 47°09' W 122°38'0 0.0
2014-Oct-22 19:33N 47°09' W 122°38'0 0.0
2014-Oct-22 18:32N 47°09' W 122°38'0 0.0
2014-Oct-22 17:32N 47°09' W 122°38'0 0.0
2014-Oct-22 16:31N 47°09' W 122°38'0 0.0
2014-Oct-22 15:21N 47°09' W 122°38'0 0.1
2014-Oct-22 14:31N 47°09' W 122°38'1 0.5
2014-Oct-22 13:24N 47°08' W 122°39'0 0.0
2014-Oct-22 12:29N 47°08' W 122°39'0 0.0
2014-Oct-22 11:34N 47°08' W 122°39'2 2.3
2014-Oct-22 10:34N 47°10' W 122°38'7 7.6
2014-Oct-22 09:36N 47°17' W 122°33'113.4
2014-Oct-22 09:34N 47°17' W 122°32'9 8.9
2014-Oct-22 08:34N 47°26' W 122°32'2 8.3
2014-Oct-22 08:22N 47°28' W 122°31'7 8.4
2014-Oct-22 07:34N 47°34' W 122°28'0 8.1
2014-Oct-22 07:32N 47°34' W 122°28'7 6.8
2014-Oct-22 06:33N 47°40' W 122°24'0 5.7
2014-Oct-22 06:32N 47°40' W 122°24'1 1.9
2014-Oct-22 05:57N 47°40' W 122°23'2 5.8
2014-Oct-22 05:34N 47°39' W 122°20'0 0.3
2014-Oct-22 04:31N 47°39' W 122°20'0 0.0
2014-Oct-22 04:31N 47°39' W 122°20'1 0.6
2014-Oct-22 03:33N 47°39' W 122°20'0 0.0
2014-Oct-22 03:31N 47°39' W 122°20'0 0.0
2014-Oct-22 01:29N 47°39' W 122°20'0 0.0
2014-Oct-22 01:29N 47°39' W 122°20'0 0.0
2014-Oct-21 23:52N 47°39' W 122°20'0 0.0
2014-Oct-21 23:33N 47°39' W 122°20'0 0.0
2014-Oct-21 23:33N 47°39' W 122°20'0 0.0
2014-Oct-21 22:33N 47°39' W 122°20'0 0.0
2014-Oct-21 22:32N 47°39' W 122°20'0 0.0
2014-Oct-21 21:33N 47°39' W 122°20'0 0.0
2014-Oct-21 21:31N 47°39' W 122°20'0 0.0
2014-Oct-21 20:33N 47°39' W 122°20'0 0.2
2014-Oct-21 20:31N 47°39' W 122°20'0 0.0
2014-Oct-21 19:33N 47°39' W 122°20'0 0.0
2014-Oct-21 19:31N 47°39' W 122°20'0 0.0
2014-Oct-21 18:33N 47°39' W 122°20'0 0.0
2014-Oct-21 18:31N 47°39' W 122°20'0 0.0
2014-Oct-21 17:33N 47°39' W 122°20'0 0.0
2014-Oct-21 17:31N 47°39' W 122°20'  
Track history (hours):
 
Tides and Currents Weather Stations Pressure Air Temp Water Temp Dewpoint Dewpoint Depression Visibility Wind Speed Wind Dir Waves Ship Positions

Solana

Owner: TAURUS MARINE, SAN FRANCISCO, CA. More information available from US FCC via Universal Licensing System and Coast Guard Vessel Documentation Center.

Last reported at 2014-Oct-31 17:09 UTC. Time now 2014-Oct-31 17:53 UTC.
Position N 47°39' W 122°17'.

Type: Towing. MMSI: 366969740.

Date/timePositionNaut miles runAvg speedWind from/ knotsBaromVisibWave heightAir tempDewpointWater temp
2014-Oct-31 17:09N 47°39' W 122°17'0 0.7
2014-Oct-31 17:01N 47°39' W 122°17'1 2.2
2014-Oct-31 16:33N 47°38' W 122°15'1 4.0
2014-Oct-31 16:21N 47°39' W 122°16'1 1.2
2014-Oct-31 15:33N 47°38' W 122°15'0 0.2
2014-Oct-31 15:06N 47°38' W 122°15'0 0.1
2014-Oct-31 14:33N 47°38' W 122°15'0 1.1
2014-Oct-31 14:26N 47°38' W 122°15'1 1.4
2014-Oct-31 13:33N 47°39' W 122°17'0 5.8
2014-Oct-31 13:31N 47°39' W 122°17'2 2.4
2014-Oct-31 12:33N 47°39' W 122°20'0 0.0
2014-Oct-31 12:31N 47°39' W 122°20'0 0.0
2014-Oct-31 11:33N 47°39' W 122°20'0 0.0
2014-Oct-31 11:31N 47°39' W 122°20'0 0.0
2014-Oct-31 10:33N 47°39' W 122°20'0 0.0
2014-Oct-31 10:31N 47°39' W 122°20'0 0.0
2014-Oct-31 09:33N 47°39' W 122°20'0 0.0
2014-Oct-31 09:31N 47°39' W 122°20'0 0.0
2014-Oct-31 08:33N 47°39' W 122°20'0 0.0
2014-Oct-31 08:26N 47°39' W 122°20'0 0.0
2014-Oct-31 07:33N 47°39' W 122°20'0 0.0
2014-Oct-31 07:30N 47°39' W 122°20'0 0.0
2014-Oct-31 06:33N 47°39' W 122°20'0 0.0
2014-Oct-31 06:30N 47°39' W 122°20'0 0.0
2014-Oct-31 06:20N 47°39' W 122°20'0 0.0
2014-Oct-31 05:33N 47°39' W 122°20'0 0.0
2014-Oct-31 04:33N 47°39' W 122°20'0 0.0
2014-Oct-31 04:30N 47°39' W 122°20'0 0.0
2014-Oct-31 03:33N 47°39' W 122°20'0 0.1
2014-Oct-31 03:29N 47°39' W 122°20'0 0.0
2014-Oct-31 02:33N 47°39' W 122°20'0 0.0
2014-Oct-31 02:29N 47°39' W 122°20'0 0.0
2014-Oct-31 01:33N 47°39' W 122°20'0 0.0
2014-Oct-31 01:29N 47°39' W 122°20'2 2.4
2014-Oct-31 00:32N 47°39' W 122°17'0 5.6
2014-Oct-31 00:29N 47°39' W 122°17'1 1.0
2014-Oct-30 23:33N 47°39' W 122°15'0 0.2
2014-Oct-30 23:29N 47°39' W 122°15'0 0.3
2014-Oct-30 22:33N 47°38' W 122°15'0 0.3
2014-Oct-30 22:24N 47°38' W 122°15'0 0.1
2014-Oct-30 21:34N 47°38' W 122°15'0 0.0
2014-Oct-30 21:33N 47°38' W 122°15'0 0.0
2014-Oct-30 20:32N 47°38' W 122°15'0 0.2
2014-Oct-30 19:33N 47°38' W 122°15'0 0.0
2014-Oct-30 19:33N 47°38' W 122°15'0 0.1
2014-Oct-30 18:31N 47°38' W 122°15'0 0.4
2014-Oct-30 18:23N 47°38' W 122°15'0 0.0
2014-Oct-30 17:33N 47°38' W 122°15'0 0.0
2014-Oct-30 17:33N 47°38' W 122°15'0 0.0
2014-Oct-30 16:33N 47°38' W 122°15'0 0.0
2014-Oct-30 16:18N 47°38' W 122°15'0 0.3
2014-Oct-30 15:33N 47°38' W 122°15'0 0.0
2014-Oct-30 15:13N 47°38' W 122°15'0 0.5
2014-Oct-30 14:33N 47°38' W 122°15'0 0.0
2014-Oct-30 14:32N 47°38' W 122°15'0 0.4
2014-Oct-30 13:33N 47°39' W 122°15'0 0.0
2014-Oct-30 13:33N 47°39' W 122°15'0 0.4
2014-Oct-30 12:33N 47°39' W 122°15'0 8.6
2014-Oct-30 12:33N 47°39' W 122°16'3 3.3
2014-Oct-30 11:33N 47°39' W 122°20'0 0.0
2014-Oct-30 11:33N 47°39' W 122°20'0 0.0
2014-Oct-30 10:34N 47°39' W 122°20'0 0.0
2014-Oct-30 10:33N 47°39' W 122°20'0 0.0
2014-Oct-30 09:33N 47°39' W 122°20'0 0.0
2014-Oct-30 09:32N 47°39' W 122°20'0 0.0
2014-Oct-30 08:33N 47°39' W 122°20'0 0.0
2014-Oct-30 08:32N 47°39' W 122°20'0 0.0
2014-Oct-30 07:33N 47°39' W 122°20'0 0.0
2014-Oct-30 07:32N 47°39' W 122°20'0 0.0
2014-Oct-30 06:33N 47°39' W 122°20'0 0.2
2014-Oct-30 06:32N 47°39' W 122°20'0 0.0
2014-Oct-30 06:12N 47°39' W 122°20'0 0.0
2014-Oct-30 05:33N 47°39' W 122°20'0 0.0
2014-Oct-30 04:33N 47°39' W 122°20'0 0.0
2014-Oct-30 04:32N 47°39' W 122°20'0 0.0
2014-Oct-30 03:34N 47°39' W 122°20'0 0.2
2014-Oct-30 03:32N 47°39' W 122°20'0 0.0
2014-Oct-30 02:33N 47°39' W 122°20'0 0.0
2014-Oct-30 02:32N 47°39' W 122°20'0 0.0
2014-Oct-30 01:33N 47°39' W 122°20'0 0.0
2014-Oct-30 01:32N 47°39' W 122°20'0 0.0
2014-Oct-30 00:33N 47°39' W 122°20'0 0.0
2014-Oct-30 00:32N 47°39' W 122°20'0 0.0
2014-Oct-29 23:33N 47°39' W 122°20'0 0.0
2014-Oct-29 23:31N 47°39' W 122°20'0 0.0
2014-Oct-29 22:33N 47°39' W 122°20'0 0.0
2014-Oct-29 22:31N 47°39' W 122°20'0 0.0
2014-Oct-29 21:33N 47°39' W 122°20'0 0.2
2014-Oct-29 21:31N 47°39' W 122°20'0 0.0
2014-Oct-29 20:33N 47°39' W 122°20'0 0.1
2014-Oct-29 20:30N 47°39' W 122°20'0 0.0
2014-Oct-29 19:27N 47°39' W 122°20'0 0.0
2014-Oct-29 19:10N 47°39' W 122°20'0 0.0
2014-Oct-29 18:33N 47°39' W 122°20'0 0.1
2014-Oct-29 18:30N 47°39' W 122°20'0 0.0
2014-Oct-29 17:34N 47°39' W 122°20'0 0.0
2014-Oct-29 17:30N 47°39' W 122°20'0 0.0
2014-Oct-29 16:34N 47°39' W 122°20'0 0.0
2014-Oct-29 16:30N 47°39' W 122°20'0 0.0
2014-Oct-29 15:33N 47°39' W 122°20'0 0.0
2014-Oct-29 15:30N 47°39' W 122°20'0 0.0
2014-Oct-29 14:32N 47°39' W 122°20'0 0.0
2014-Oct-29 14:30N 47°39' W 122°20'0 0.0
2014-Oct-29 13:34N 47°39' W 122°20'0 0.1
2014-Oct-29 13:30N 47°39' W 122°20'0 0.0
2014-Oct-29 12:30N 47°39' W 122°20'0 0.0
2014-Oct-29 12:28N 47°39' W 122°20'0 0.0
2014-Oct-29 09:21N 47°39' W 122°20'0 0.0
2014-Oct-29 09:19N 47°39' W 122°20'0 0.0
2014-Oct-29 08:33N 47°39' W 122°20'0 0.0
2014-Oct-29 08:28N 47°39' W 122°20'0 0.0
2014-Oct-29 07:33N 47°39' W 122°20'0 0.0
2014-Oct-29 07:29N 47°39' W 122°20'0 0.0
2014-Oct-29 06:33N 47°39' W 122°20'0 0.1
2014-Oct-29 06:29N 47°39' W 122°20'0 0.0
2014-Oct-29 06:09N 47°39' W 122°20'0 0.0
2014-Oct-29 05:33N 47°39' W 122°20'0 0.0
2014-Oct-29 04:33N 47°39' W 122°20'0 0.0
2014-Oct-29 04:28N 47°39' W 122°20'0 0.0
2014-Oct-29 03:33N 47°39' W 122°20'0 0.0
2014-Oct-29 03:28N 47°39' W 122°20'0 0.0
2014-Oct-29 02:33N 47°39' W 122°20'0 0.0
2014-Oct-29 02:29N 47°39' W 122°20'0 0.0
2014-Oct-29 01:34N 47°39' W 122°20'0 0.0
2014-Oct-29 01:28N 47°39' W 122°20'2 1.5
2014-Oct-29 00:26N 47°39' W 122°18'1 5.9
2014-Oct-29 00:18N 47°39' W 122°17'2 2.0
2014-Oct-28 23:32N 47°38' W 122°15'0 0.1
2014-Oct-28 22:34N 47°38' W 122°15'1 2.1
2014-Oct-28 21:59N 47°39' W 122°17'1 2.6
2014-Oct-28 21:30N 47°38' W 122°15'1 1.5
2014-Oct-28 21:04N 47°39' W 122°16'1 1.3
2014-Oct-28 20:33N 47°39' W 122°17'0 0.1
2014-Oct-28 20:28N 47°39' W 122°17'0 0.1
2014-Oct-28 19:33N 47°39' W 122°17'0 0.3
2014-Oct-28 19:27N 47°39' W 122°17'1 1.3
2014-Oct-28 18:33N 47°39' W 122°15'0 1.1
2014-Oct-28 18:31N 47°39' W 122°15'0 0.3
2014-Oct-28 17:32N 47°38' W 122°15'0 0.6
2014-Oct-28 16:54N 47°39' W 122°15'0 0.9
2014-Oct-28 16:33N 47°39' W 122°15'0 0.6
2014-Oct-28 16:24N 47°39' W 122°15'0 0.5
2014-Oct-28 15:33N 47°38' W 122°15'0 1.1
2014-Oct-28 15:14N 47°39' W 122°15'0 0.4
2014-Oct-28 14:30N 47°38' W 122°15'0 0.0
2014-Oct-28 14:29N 47°38' W 122°15'0 0.1
2014-Oct-28 13:31N 47°38' W 122°15'0 0.1
2014-Oct-28 13:14N 47°38' W 122°15'0 0.3
2014-Oct-28 12:32N 47°39' W 122°15'0 7.4
2014-Oct-28 12:29N 47°39' W 122°15'3 3.6
2014-Oct-28 11:34N 47°39' W 122°20'0 0.0
2014-Oct-28 11:29N 47°39' W 122°20'0 0.0
2014-Oct-28 10:33N 47°39' W 122°20'0 0.0
2014-Oct-28 10:29N 47°39' W 122°20'0 0.0
2014-Oct-28 09:33N 47°39' W 122°20'0 0.0
2014-Oct-28 09:29N 47°39' W 122°20'0 0.0
2014-Oct-28 08:33N 47°39' W 122°20'0 0.0
2014-Oct-28 08:29N 47°39' W 122°20'0 0.0
2014-Oct-28 07:33N 47°39' W 122°20'0 0.0
2014-Oct-28 07:29N 47°39' W 122°20'0 0.0
2014-Oct-28 06:33N 47°39' W 122°20'0 0.1
2014-Oct-28 06:28N 47°39' W 122°20'0 0.0
2014-Oct-28 06:23N 47°39' W 122°20'0 0.0
2014-Oct-28 05:33N 47°39' W 122°20'0 0.0
2014-Oct-28 04:33N 47°39' W 122°20'0 0.0
2014-Oct-28 04:28N 47°39' W 122°20'0 0.0
2014-Oct-28 03:34N 47°39' W 122°20'0 0.0
2014-Oct-28 03:33N 47°39' W 122°20'0 0.0
2014-Oct-28 02:33N 47°39' W 122°20'0 2.4
2014-Oct-28 02:33N 47°39' W 122°20'0 0.3
2014-Oct-28 01:34N 47°39' W 122°20'0 0.0
2014-Oct-28 01:33N 47°39' W 122°20'3 3.5
2014-Oct-28 00:34N 47°39' W 122°15'0 1.6
2014-Oct-28 00:32N 47°39' W 122°15'0 0.1
2014-Oct-27 23:29N 47°38' W 122°15'0 0.0
2014-Oct-27 22:57N 47°38' W 122°15'0 0.0
2014-Oct-27 22:17N 47°38' W 122°15'0 0.0
2014-Oct-27 22:01N 47°38' W 122°15'0 0.0
2014-Oct-27 21:33N 47°38' W 122°15'0 0.0
2014-Oct-27 21:31N 47°38' W 122°15'0 0.0
2014-Oct-27 20:20N 47°38' W 122°15'0 0.0
2014-Oct-27 20:15N 47°38' W 122°15'0 0.0
2014-Oct-27 19:34N 47°38' W 122°15'0 0.0
2014-Oct-27 19:30N 47°38' W 122°15'0 0.0
2014-Oct-27 18:33N 47°38' W 122°15'0 0.0
2014-Oct-27 18:20N 47°38' W 122°15'0 0.0
2014-Oct-27 17:33N 47°38' W 122°15'0 0.9
2014-Oct-27 17:30N 47°38' W 122°15'1 1.5
2014-Oct-27 16:33N 47°39' W 122°17'0 0.0
2014-Oct-27 16:30N 47°39' W 122°17'1 1.1
2014-Oct-27 15:32N 47°39' W 122°15'0 0.9
2014-Oct-27 15:05N 47°38' W 122°15'0 0.2
2014-Oct-27 14:30N 47°38' W 122°15'0 0.6
2014-Oct-27 14:25N 47°38' W 122°15'0 0.2
2014-Oct-27 13:33N 47°38' W 122°15'0 0.1
2014-Oct-27 13:25N 47°38' W 122°15'0 0.2
2014-Oct-27 12:34N 47°38' W 122°15'0 1.2
2014-Oct-27 12:19N 47°39' W 122°15'3 3.6
2014-Oct-27 11:33N 47°39' W 122°19'0 5.0
2014-Oct-27 11:30N 47°39' W 122°20'1 0.6
2014-Oct-27 10:33N 47°39' W 122°20'0 0.0
2014-Oct-27 10:30N 47°39' W 122°20'0 0.0
2014-Oct-27 09:33N 47°39' W 122°20'0 0.0
2014-Oct-27 09:30N 47°39' W 122°20'0 0.0
2014-Oct-27 08:33N 47°39' W 122°20'0 0.0
2014-Oct-27 08:30N 47°39' W 122°20'0 0.0
2014-Oct-27 07:33N 47°39' W 122°20'0 0.0
2014-Oct-27 07:30N 47°39' W 122°20'0 0.0
2014-Oct-27 06:33N 47°39' W 122°20'0 0.1
2014-Oct-27 06:29N 47°39' W 122°20'0 0.0
2014-Oct-27 06:24N 47°39' W 122°20'0 0.0
2014-Oct-27 05:33N 47°39' W 122°20'0 0.0
2014-Oct-27 04:33N 47°39' W 122°20'0 0.0
2014-Oct-27 04:29N 47°39' W 122°20'0 0.0
2014-Oct-27 03:33N 47°39' W 122°20'0 0.0
2014-Oct-27 03:08N 47°39' W 122°20'0 0.0
2014-Oct-27 02:33N 47°39' W 122°20'0 0.0
2014-Oct-27 02:28N 47°39' W 122°20'0 0.0
2014-Oct-27 01:33N 47°39' W 122°20'0 0.0
2014-Oct-27 01:33N 47°39' W 122°20'0 0.0
2014-Oct-27 00:34N 47°39' W 122°20'0 0.0
2014-Oct-27 00:33N 47°39' W 122°20'0 0.0
2014-Oct-26 23:33N 47°39' W 122°20'0 0.0
2014-Oct-26 23:33N 47°39' W 122°20'0 0.0
2014-Oct-26 22:33N 47°39' W 122°20'0 0.0
2014-Oct-26 22:33N 47°39' W 122°20'0 0.0
2014-Oct-26 21:33N 47°39' W 122°20'0 0.0
2014-Oct-26 21:32N 47°39' W 122°20'0 0.0
2014-Oct-26 20:33N 47°39' W 122°20'0 0.0
2014-Oct-26 20:33N 47°39' W 122°20'1 1.4
2014-Oct-26 19:31N 47°39' W 122°18'1 6.7
2014-Oct-26 19:22N 47°39' W 122°17'6 7.6
2014-Oct-26 18:33N 47°45' W 122°16'0 0.7
2014-Oct-26 18:07N 47°45' W 122°16'4 7.2
2014-Oct-26 17:33N 47°41' W 122°15'1 8.5
2014-Oct-26 17:26N 47°40' W 122°14'2 1.8
2014-Oct-26 16:32N 47°39' W 122°15'0 7.1
2014-Oct-26 16:31N 47°39' W 122°15'3 3.2
2014-Oct-26 15:33N 47°39' W 122°20'0 6.2
2014-Oct-26 15:31N 47°39' W 122°20'0 0.4
2014-Oct-26 14:33N 47°39' W 122°20'0 0.0
2014-Oct-26 14:31N 47°39' W 122°20'0 0.0
2014-Oct-26 13:33N 47°39' W 122°20'0 0.0
2014-Oct-26 13:31N 47°39' W 122°20'0 0.0
2014-Oct-26 12:33N 47°39' W 122°20'0 0.1
2014-Oct-26 12:31N 47°39' W 122°20'0 0.0
2014-Oct-26 11:33N 47°39' W 122°20'0 0.0
2014-Oct-26 11:30N 47°39' W 122°20'0 0.0
2014-Oct-26 10:33N 47°39' W 122°20'0 0.0
2014-Oct-26 10:30N 47°39' W 122°20'0 0.0
2014-Oct-26 09:33N 47°39' W 122°20'0 0.0
2014-Oct-26 09:30N 47°39' W 122°20'0 0.0
2014-Oct-26 08:33N 47°39' W 122°20'0 0.0
2014-Oct-26 08:30N 47°39' W 122°20'0 0.0
2014-Oct-26 07:33N 47°39' W 122°20'0 0.1
2014-Oct-26 07:30N 47°39' W 122°20'0 0.0
2014-Oct-26 06:33N 47°39' W 122°20'0 0.0
2014-Oct-26 06:30N 47°39' W 122°20'0 0.0
2014-Oct-26 06:00N 47°39' W 122°20'0 0.0
2014-Oct-26 05:33N 47°39' W 122°20'0 0.0
2014-Oct-26 04:33N 47°39' W 122°20'0 0.0
2014-Oct-26 04:29N 47°39' W 122°20'0 0.0
2014-Oct-26 03:33N 47°39' W 122°20'0 0.0
2014-Oct-26 03:29N 47°39' W 122°20'0 0.0
2014-Oct-26 02:33N 47°39' W 122°20'0 0.0
2014-Oct-26 02:29N 47°39' W 122°20'0 0.0
2014-Oct-26 00:07N 47°39' W 122°20'0 0.0
2014-Oct-25 23:23N 47°39' W 122°20'0 0.0
2014-Oct-25 23:19N 47°39' W 122°20'0 0.0
2014-Oct-25 22:33N 47°39' W 122°20'0 0.0
2014-Oct-25 22:29N 47°39' W 122°20'0 0.0
2014-Oct-25 21:33N 47°39' W 122°20'0 0.1
2014-Oct-25 21:29N 47°39' W 122°20'0 0.0
2014-Oct-25 20:33N 47°39' W 122°20'0 0.0
2014-Oct-25 20:29N 47°39' W 122°20'0 0.0
2014-Oct-25 19:33N 47°39' W 122°20'0 0.1
2014-Oct-25 19:29N 47°39' W 122°20'0 0.0
2014-Oct-25 18:33N 47°39' W 122°20'0 0.0
2014-Oct-25 18:29N 47°39' W 122°20'0 0.0
2014-Oct-25 17:33N 47°39' W 122°20'0 0.0
2014-Oct-25 17:28N 47°39' W 122°20'0 0.0
2014-Oct-25 16:32N 47°39' W 122°20'0 0.1
2014-Oct-25 16:28N 47°39' W 122°20'0 0.0
2014-Oct-25 15:33N 47°39' W 122°20'0 0.1
2014-Oct-25 15:29N 47°39' W 122°20'0 0.0
2014-Oct-25 14:33N 47°39' W 122°20'0 0.0
2014-Oct-25 13:33N 47°39' W 122°20'0 0.0
2014-Oct-25 12:33N 47°39' W 122°20'0 0.0
2014-Oct-25 12:32N 47°39' W 122°20'0 0.0
2014-Oct-25 11:33N 47°39' W 122°20'0 0.0
2014-Oct-25 11:33N 47°39' W 122°20'0 0.0
2014-Oct-25 10:33N 47°39' W 122°20'0 0.0
2014-Oct-25 10:33N 47°39' W 122°20'0 0.0
2014-Oct-25 09:33N 47°39' W 122°20'0 0.0
2014-Oct-25 09:33N 47°39' W 122°20'0 0.0
2014-Oct-25 08:33N 47°39' W 122°20'0 0.0
2014-Oct-25 08:32N 47°39' W 122°20'0 0.0
2014-Oct-25 07:33N 47°39' W 122°20'0 0.0
2014-Oct-25 07:33N 47°39' W 122°20'0 0.0
2014-Oct-25 06:33N 47°39' W 122°20'0 0.0
2014-Oct-25 06:33N 47°39' W 122°20'0 0.0
2014-Oct-25 05:57N 47°39' W 122°20'0 0.0
2014-Oct-25 05:33N 47°39' W 122°20'0 0.0
2014-Oct-25 04:33N 47°39' W 122°20'0 0.0
2014-Oct-25 04:32N 47°39' W 122°20'0 0.0
2014-Oct-25 03:33N 47°39' W 122°20'0 0.0
2014-Oct-25 03:32N 47°39' W 122°20'0 0.0
2014-Oct-25 02:33N 47°39' W 122°20'0 0.0
2014-Oct-25 02:32N 47°39' W 122°20'2 1.6
2014-Oct-25 01:33N 47°39' W 122°18'1 6.5
2014-Oct-25 01:27N 47°39' W 122°17'2 1.7
2014-Oct-25 00:33N 47°39' W 122°15'0 1.9
2014-Oct-25 00:26N 47°38' W 122°15'0 0.1
2014-Oct-24 23:33N 47°38' W 122°15'0 3.1
2014-Oct-24 23:27N 47°38' W 122°15'0 0.4
2014-Oct-24 22:31N 47°38' W 122°15'0 0.5
2014-Oct-24 22:28N 47°38' W 122°15'0 0.4
2014-Oct-24 21:33N 47°39' W 122°15'0 1.5
2014-Oct-24 21:31N 47°39' W 122°15'0 0.5
2014-Oct-24 20:33N 47°38' W 122°15'0 0.4
2014-Oct-24 20:01N 47°38' W 122°15'0 0.2
2014-Oct-24 19:33N 47°38' W 122°15'0 0.1
2014-Oct-24 18:33N 47°38' W 122°15'0 0.0
2014-Oct-24 18:09N 47°38' W 122°15'0 0.0
2014-Oct-24 17:33N 47°38' W 122°15'0 0.1
2014-Oct-24 16:48N 47°38' W 122°15'0 0.1
2014-Oct-24 16:32N 47°38' W 122°15'0 0.2
2014-Oct-24 16:24N 47°38' W 122°15'0 0.5
2014-Oct-24 15:33N 47°39' W 122°15'0 1.1
2014-Oct-24 15:28N 47°39' W 122°15'0 0.5
2014-Oct-24 14:33N 47°39' W 122°16'1 6.3
2014-Oct-24 14:28N 47°39' W 122°15'0 0.2
2014-Oct-24 13:33N 47°38' W 122°15'0 0.0
2014-Oct-24 13:33N 47°38' W 122°15'1 0.6
2014-Oct-24 12:33N 47°39' W 122°15'0 0.0
2014-Oct-24 12:33N 47°39' W 122°15'3 3.4
2014-Oct-24 11:33N 47°39' W 122°20'0 0.0
2014-Oct-24 11:33N 47°39' W 122°20'0 0.0
2014-Oct-24 10:33N 47°39' W 122°20'0 0.0
2014-Oct-24 10:33N 47°39' W 122°20'0 0.0
2014-Oct-24 09:33N 47°39' W 122°20'0 0.0
2014-Oct-24 09:33N 47°39' W 122°20'0 0.0
2014-Oct-24 06:23N 47°39' W 122°20'0 0.0
2014-Oct-24 06:22N 47°39' W 122°20'0 0.0
2014-Oct-24 05:57N 47°39' W 122°20'0 0.0
2014-Oct-24 05:33N 47°39' W 122°20'0 0.0
2014-Oct-24 04:33N 47°39' W 122°20'0 0.0
2014-Oct-24 04:32N 47°39' W 122°20'0 0.0
2014-Oct-24 03:33N 47°39' W 122°20'0 0.4
2014-Oct-24 03:32N 47°39' W 122°20'0 0.0
2014-Oct-24 02:33N 47°39' W 122°20'0 0.0
2014-Oct-24 02:32N 47°39' W 122°20'3 3.5
2014-Oct-24 01:33N 47°39' W 122°15'0 7.9
2014-Oct-24 01:31N 47°39' W 122°15'0 0.2
2014-Oct-24 00:34N 47°38' W 122°15'0 0.2
2014-Oct-24 00:32N 47°38' W 122°15'0 0.1
2014-Oct-23 23:34N 47°38' W 122°15'0 8.2
2014-Oct-23 23:32N 47°39' W 122°15'3 3.4
2014-Oct-23 22:34N 47°39' W 122°20'0 0.2
2014-Oct-23 22:31N 47°39' W 122°20'0 0.0
2014-Oct-23 21:33N 47°39' W 122°20'0 0.2
2014-Oct-23 21:31N 47°39' W 122°20'0 0.0
2014-Oct-23 20:34N 47°39' W 122°20'0 0.0
2014-Oct-23 20:31N 47°39' W 122°20'0 0.0
2014-Oct-23 19:33N 47°39' W 122°20'0 0.0
2014-Oct-23 19:31N 47°39' W 122°20'0 0.0
2014-Oct-23 18:33N 47°39' W 122°20'0 0.2
2014-Oct-23 18:31N 47°39' W 122°20'2 2.1
2014-Oct-23 17:31N 47°39' W 122°17'0 6.8
2014-Oct-23 17:30N 47°39' W 122°17'1 0.7
2014-Oct-23 16:32N 47°39' W 122°16'0 1.5
2014-Oct-23 16:21N 47°39' W 122°16'0 0.2
2014-Oct-23 15:33N 47°39' W 122°16'0 0.4
2014-Oct-23 15:20N 47°39' W 122°16'1 0.8
2014-Oct-23 14:33N 47°38' W 122°15'0 0.5
2014-Oct-23 14:25N 47°39' W 122°16'3 3.1
2014-Oct-23 13:32N 47°39' W 122°20'1 5.1
2014-Oct-23 13:25N 47°39' W 122°20'0 0.4
2014-Oct-23 12:33N 47°39' W 122°20'0 0.1
2014-Oct-23 12:30N 47°39' W 122°20'0 0.0
2014-Oct-23 11:34N 47°39' W 122°20'0 0.0
2014-Oct-23 11:30N 47°39' W 122°20'0 0.0
2014-Oct-23 10:33N 47°39' W 122°20'0 0.0
2014-Oct-23 10:30N 47°39' W 122°20'0 0.0
2014-Oct-23 09:33N 47°39' W 122°20'0 0.0
2014-Oct-23 09:30N 47°39' W 122°20'0 0.0
2014-Oct-23 08:33N 47°39' W 122°20'0 0.1
2014-Oct-23 08:30N 47°39' W 122°20'0 0.0
2014-Oct-23 07:33N 47°39' W 122°20'0 0.0
2014-Oct-23 07:30N 47°39' W 122°20'2 1.5
2014-Oct-23 06:28N 47°39' W 122°18'2 6.7
2014-Oct-23 06:14N 47°39' W 122°16'3 8.5
2014-Oct-23 05:54N 47°42' W 122°15'3 8.6
2014-Oct-23 05:33N 47°45' W 122°16'5 5.2
2014-Oct-23 04:33N 47°40' W 122°15'1 8.9
2014-Oct-23 04:29N 47°39' W 122°15'3 3.6
2014-Oct-23 03:33N 47°39' W 122°20'0 5.4
2014-Oct-23 03:29N 47°39' W 122°20'3 3.3
2014-Oct-23 02:32N 47°40' W 122°24'0 2.5
2014-Oct-23 02:29N 47°40' W 122°24'6 6.0
2014-Oct-23 01:33N 47°35' W 122°28'1 8.6
2014-Oct-23 01:29N 47°35' W 122°28'8 8.8
2014-Oct-23 00:34N 47°27' W 122°31'9 8.4
2014-Oct-22 23:32N 47°18' W 122°32'2 7.0
2014-Oct-22 23:18N 47°17' W 122°32'5 7.0
2014-Oct-22 22:33N 47°12' W 122°36'4 3.7
2014-Oct-22 21:34N 47°09' W 122°38'0 0.0
2014-Oct-22 20:32N 47°09' W 122°38'0 0.0
2014-Oct-22 19:33N 47°09' W 122°38'0 0.0
2014-Oct-22 18:32N 47°09' W 122°38'0 0.0
2014-Oct-22 17:32N 47°09' W 122°38'0 0.0
2014-Oct-22 16:31N 47°09' W 122°38'0 0.0
2014-Oct-22 15:21N 47°09' W 122°38'0 0.1
2014-Oct-22 14:31N 47°09' W 122°38'1 0.5
2014-Oct-22 13:24N 47°08' W 122°39'0 0.0
2014-Oct-22 12:29N 47°08' W 122°39'0 0.0
2014-Oct-22 11:34N 47°08' W 122°39'2 2.3
2014-Oct-22 10:34N 47°10' W 122°38'7 7.6
2014-Oct-22 09:36N 47°17' W 122°33'113.4
2014-Oct-22 09:34N 47°17' W 122°32'9 8.9
2014-Oct-22 08:34N 47°26' W 122°32'2 8.3
2014-Oct-22 08:22N 47°28' W 122°31'7 8.4
2014-Oct-22 07:34N 47°34' W 122°28'0 8.1
2014-Oct-22 07:32N 47°34' W 122°28'7 6.8
2014-Oct-22 06:33N 47°40' W 122°24'0 5.7
2014-Oct-22 06:32N 47°40' W 122°24'1 1.9
2014-Oct-22 05:57N 47°40' W 122°23'2 5.8
2014-Oct-22 05:34N 47°39' W 122°20'0 0.3
2014-Oct-22 04:31N 47°39' W 122°20'0 0.0
2014-Oct-22 04:31N 47°39' W 122°20'1 0.6
2014-Oct-22 03:33N 47°39' W 122°20'0 0.0
2014-Oct-22 03:31N 47°39' W 122°20'0 0.0
2014-Oct-22 01:29N 47°39' W 122°20'0 0.0
2014-Oct-22 01:29N 47°39' W 122°20'0 0.0
2014-Oct-21 23:52N 47°39' W 122°20'0 0.0
2014-Oct-21 23:33N 47°39' W 122°20'0 0.0
2014-Oct-21 23:33N 47°39' W 122°20'0 0.0
2014-Oct-21 22:33N 47°39' W 122°20'0 0.0
2014-Oct-21 22:32N 47°39' W 122°20'0 0.0
2014-Oct-21 21:33N 47°39' W 122°20'0 0.0
2014-Oct-21 21:31N 47°39' W 122°20'0 0.0
2014-Oct-21 20:33N 47°39' W 122°20'0 0.2
2014-Oct-21 20:31N 47°39' W 122°20'0 0.0
2014-Oct-21 19:33N 47°39' W 122°20'0 0.0
2014-Oct-21 19:31N 47°39' W 122°20'0 0.0
2014-Oct-21 18:33N 47°39' W 122°20'0 0.0
2014-Oct-21 18:31N 47°39' W 122°20'0 0.0
2014-Oct-21 17:33N 47°39' W 122°20'0 0.0
2014-Oct-21 17:31N 47°39' W 122°20'  

Dump ship's entire track history